Terminal Aerodrome Forecast
Issued by NWS

Home | Current Version | Previous Version | Text Only | Print | Product List | Glossary On
Versions: 1 2 3 4 5 6 7 8 9 10 11 12 13 14 15 16 17 18 19 20 21 22 23 24 25 26 27 28 29 30
165
FTUS43 KDDC 111120
TAFGCK
TAF
KGCK 111120Z 1112/1212 30012KT P6SM SKC
     FM111600 34017G24KT P6SM SKC
     FM111900 35023G31KT P6SM SKC
     FM112300 34015G22KT P6SM SKC
     FM120100 34008KT P6SM SKC=

USA.gov is the U.S. government's official web portal to all federal, state and local government web resources and services.